Time;durP1;ratioP1;P1;durP2;ratioP2;P2;SDS_P1;SDS_P2;PMS_P1;PMS_P2;Temp;Humidity;BMP_temperature;BMP_pressure;BME280_temperature;BME280_humidity;BME280_pressure;Samples;Min_cycle;Max_cycle;Signal;HPM_P1;HPM_P2
2022/03/27 00:01:10;;;;;;;39.93;23.03;;;;;;;5.09;100.00;96380.78;5077283;28;20186;-47
2022/03/27 00:03:35;;;;;;;40.70;23.07;;;;;;;5.03;100.00;96382.16;5077075;28;20333;-52
2022/03/27 00:06:01;;;;;;;41.57;22.97;;;;;;;4.98;100.00;96379.69;5078145;28;20185;-48
2022/03/27 00:08:27;;;;;;;38.33;22.40;;;;;;;4.95;100.00;96380.41;5077502;28;20182;-46
2022/03/27 00:13:36;;;;;;;39.80;22.40;;;;;;;4.88;100.00;96374.78;5095053;28;20181;-49
2022/03/27 00:16:02;;;;;;;37.83;22.20;;;;;;;4.85;100.00;96372.75;5077002;28;20178;-49
2022/03/27 00:18:27;;;;;;;40.17;21.53;;;;;;;4.81;100.00;96375.34;5077364;28;20218;-46
2022/03/27 00:20:53;;;;;;;35.67;21.00;;;;;;;4.80;100.00;96372.97;5077299;28;20186;-48
2022/03/27 00:23:18;;;;;;;36.83;20.97;;;;;;;4.77;100.00;96374.44;5077163;28;20208;-51
2022/03/27 00:25:45;;;;;;;39.13;21.70;;;;;;;4.75;100.00;96375.91;5076878;28;20516;-51
2022/03/27 00:28:11;;;;;;;37.00;21.00;;;;;;;4.73;100.00;96376.25;5076999;28;20515;-47
2022/03/27 00:30:38;;;;;;;32.90;20.20;;;;;;;4.70;100.00;96368.81;5076948;28;20362;-46
2022/03/27 00:33:04;;;;;;;36.17;20.63;;;;;;;4.71;100.00;96372.31;5076487;28;20251;-48
2022/03/27 00:35:29;;;;;;;39.33;20.27;;;;;;;4.66;100.00;96375.28;5076663;28;20215;-45
2022/03/27 00:37:55;;;;;;;32.10;20.53;;;;;;;4.61;100.00;96381.69;5076581;28;20550;-47
2022/03/27 00:40:20;;;;;;;38.20;21.23;;;;;;;4.55;100.00;96374.16;5076718;28;20206;-65
2022/03/27 00:42:46;;;;;;;37.67;20.07;;;;;;;4.49;100.00;96367.41;5076672;28;20225;-70
2022/03/27 00:45:11;;;;;;;37.03;20.10;;;;;;;4.44;100.00;96368.41;5076959;28;20189;-49
2022/03/27 00:47:37;;;;;;;34.60;19.93;;;;;;;4.40;100.00;96369.44;5076806;28;20227;-50
2022/03/27 00:50:04;;;;;;;36.03;19.83;;;;;;;4.31;100.00;96372.28;5076639;28;20202;-52
2022/03/27 00:52:30;;;;;;;38.27;21.07;;;;;;;4.22;100.00;96373.50;5076298;28;20209;-48
2022/03/27 00:54:56;;;;;;;35.43;19.87;;;;;;;4.23;100.00;96380.50;5076392;28;20176;-53
2022/03/27 00:57:21;;;;;;;35.00;20.07;;;;;;;4.19;100.00;96380.34;5075721;28;20192;-51
2022/03/27 00:59:47;;;;;;;41.23;21.53;;;;;;;4.17;100.00;96373.72;5075895;28;20664;-62
2022/03/27 01:02:13;;;;;;;36.90;20.93;;;;;;;4.10;100.00;96377.00;5076217;28;20310;-65
2022/03/27 01:04:43;;;;;;;35.97;21.07;;;;;;;4.08;100.00;96378.47;5076297;28;20192;-63
2022/03/27 01:07:08;;;;;;;36.70;20.83;;;;;;;4.09;100.00;96385.44;5075984;28;20552;-64
2022/03/27 01:09:37;;;;;;;33.50;20.27;;;;;;;4.05;100.00;96379.94;5076794;28;20185;-63
2022/03/27 01:12:28;;;;;;;36.83;20.00;;;;;;;4.03;100.00;96375.97;5076079;28;20200;-62
2022/03/27 01:14:54;;;;;;;38.07;20.00;;;;;;;4.02;100.00;96374.38;5067893;28;20725;-62
2022/03/27 01:17:22;;;;;;;33.30;19.63;;;;;;;4.05;100.00;96371.03;5075976;28;20189;-47
2022/03/27 01:19:50;;;;;;;33.87;19.53;;;;;;;4.08;100.00;96375.75;5075775;28;20271;-48
2022/03/27 01:22:16;;;;;;;36.57;20.53;;;;;;;4.08;100.00;96373.06;5075700;28;20357;-49
2022/03/27 01:24:42;;;;;;;35.47;20.13;;;;;;;4.04;100.00;96369.44;5075733;28;20184;-51
2022/03/27 01:27:08;;;;;;;30.97;18.70;;;;;;;4.04;100.00;96370.22;5076469;28;20188;-48
2022/03/27 01:29:34;;;;;;;37.07;19.27;;;;;;;4.06;100.00;96359.06;5076339;28;20523;-50
2022/03/27 01:31:59;;;;;;;33.80;19.57;;;;;;;4.07;100.00;96350.63;5075968;28;20190;-46
2022/03/27 01:34:25;;;;;;;33.30;19.50;;;;;;;4.09;100.00;96359.22;5093846;28;20187;-51
2022/03/27 01:36:51;;;;;;;35.00;20.00;;;;;;;4.09;100.00;96359.22;5075966;28;20637;-56
2022/03/27 01:39:17;;;;;;;33.80;19.23;;;;;;;4.11;100.00;96356.94;5093756;28;20176;-68
2022/03/27 01:41:44;;;;;;;32.23;18.93;;;;;;;4.09;100.00;96353.00;5075766;28;20205;-68
2022/03/27 01:44:12;;;;;;;33.57;20.03;;;;;;;4.07;100.00;96355.28;5075755;28;20189;-68
2022/03/27 01:46:39;;;;;;;30.90;19.33;;;;;;;4.02;100.00;96348.19;5075682;28;20196;-68
2022/03/27 01:49:08;;;;;;;29.90;19.10;;;;;;;3.98;100.00;96349.97;5075799;28;20188;-68
2022/03/27 01:51:35;;;;;;;40.37;20.87;;;;;;;3.92;100.00;96343.22;5075883;28;20181;-68
2022/03/27 01:54:01;;;;;;;34.50;19.73;;;;;;;3.89;100.00;96349.28;5075588;28;20197;-46
2022/03/27 01:56:26;;;;;;;34.17;19.67;;;;;;;3.83;100.00;96339.84;5075560;28;20181;-61
2022/03/27 01:58:52;;;;;;;35.33;19.30;;;;;;;3.75;100.00;96342.63;5093491;28;20526;-51
2022/03/27 02:01:19;;;;;;;33.80;18.83;;;;;;;3.73;100.00;96355.69;5075614;28;20200;-47
2022/03/27 02:03:45;;;;;;;35.83;19.57;;;;;;;3.70;100.00;96350.94;5075084;28;20212;-47
2022/03/27 02:06:12;;;;;;;37.87;18.93;;;;;;;3.64;100.00;96346.91;5075322;28;20177;-47
2022/03/27 02:08:37;;;;;;;34.93;18.47;;;;;;;3.63;100.00;96350.69;5078434;28;20188;-50
2022/03/27 02:11:03;;;;;;;30.90;18.50;;;;;;;3.61;100.00;96342.16;5078800;28;20176;-48
2022/03/27 02:13:29;;;;;;;34.00;19.20;;;;;;;3.58;100.00;96333.59;5078891;28;20184;-50
2022/03/27 02:15:57;;;;;;;33.10;18.87;;;;;;;3.53;100.00;96341.94;5078824;28;20205;-44
2022/03/27 02:18:26;;;;;;;33.17;18.13;;;;;;;3.49;100.00;96343.72;5078969;28;20215;-45
2022/03/27 02:20:52;;;;;;;37.43;19.90;;;;;;;3.49;100.00;96346.41;5078813;28;20222;-44
2022/03/27 02:23:17;;;;;;;33.50;18.33;;;;;;;3.44;100.00;96335.84;5078650;28;20664;-44
2022/03/27 02:25:43;;;;;;;33.87;18.60;;;;;;;3.42;100.00;96335.38;5079145;28;20176;-44
2022/03/27 02:28:09;;;;;;;31.57;17.77;;;;;;;3.40;100.00;96344.94;5079236;28;20192;-46
2022/03/27 02:30:35;;;;;;;31.00;17.43;;;;;;;3.34;100.00;96338.97;5078465;28;20176;-48
2022/03/27 02:33:00;;;;;;;28.43;17.30;;;;;;;3.30;100.00;96338.06;5078770;28;20698;-46
2022/03/27 02:35:26;;;;;;;33.10;17.07;;;;;;;3.24;100.00;96347.47;5078344;28;20248;-60
2022/03/27 02:37:52;;;;;;;30.93;17.00;;;;;;;3.19;100.00;96353.09;5078357;28;20192;-60
2022/03/27 02:40:17;;;;;;;27.53;17.03;;;;;;;3.18;100.00;96351.50;5078645;28;20209;-62
2022/03/27 02:42:43;;;;;;;29.93;17.57;;;;;;;3.18;100.00;96340.69;5078407;28;20204;-61
2022/03/27 02:45:09;;;;;;;29.10;17.90;;;;;;;3.15;100.00;96346.78;5078464;28;20188;-62
2022/03/27 02:47:35;;;;;;;28.60;16.83;;;;;;;3.11;100.00;96345.06;5078138;28;20261;-64
2022/03/27 02:50:04;;;;;;;29.90;17.00;;;;;;;3.04;100.00;96347.50;5078734;28;20193;-67
2022/03/27 02:52:29;;;;;;;30.83;17.33;;;;;;;2.98;100.00;96352.31;5078276;28;20203;-58
2022/03/27 02:54:55;;;;;;;30.07;16.53;;;;;;;2.95;100.00;96363.00;5078279;28;20192;-59
2022/03/27 02:57:20;;;;;;;33.27;17.53;;;;;;;2.93;100.00;96352.53;5078633;28;20207;-58
2022/03/27 02:59:46;;;;;;;28.97;16.57;;;;;;;2.90;100.00;96355.09;5078145;28;20226;-58
2022/03/27 03:02:11;;;;;;;28.07;16.60;;;;;;;2.86;100.00;96344.19;5077669;28;20200;-58
2022/03/27 03:04:37;;;;;;;31.47;17.40;;;;;;;2.86;100.00;96354.19;5078379;28;20188;-58
2022/03/27 03:07:02;;;;;;;30.17;16.67;;;;;;;2.82;100.00;96359.44;5078754;28;20237;-57
2022/03/27 03:09:28;;;;;;;29.33;17.40;;;;;;;2.80;100.00;96356.28;5077987;28;20238;-57
2022/03/27 03:11:53;;;;;;;31.90;17.37;;;;;;;2.78;100.00;96355.03;5078597;28;20625;-61
2022/03/27 03:14:19;;;;;;;29.57;16.90;;;;;;;2.76;100.00;96352.66;5077827;28;20185;-61
2022/03/27 03:16:49;;;;;;;29.57;17.30;;;;;;;2.73;100.00;96361.41;5077755;28;20187;-61
2022/03/27 03:19:15;;;;;;;32.83;16.20;;;;;;;2.69;100.00;96354.31;5077498;28;20189;-61
2022/03/27 03:21:40;;;;;;;29.10;16.70;;;;;;;2.65;100.00;96354.19;5077736;28;20761;-61
2022/03/27 03:24:08;;;;;;;29.73;17.00;;;;;;;2.56;100.00;96355.38;5077939;28;20188;-61
2022/03/27 03:26:34;;;;;;;28.10;16.23;;;;;;;2.48;100.00;96354.28;5078320;28;20196;-49
2022/03/27 03:28:59;;;;;;;27.27;16.73;;;;;;;2.44;100.00;96350.69;5078562;28;20187;-62
2022/03/27 03:31:25;;;;;;;28.50;17.10;;;;;;;2.39;100.00;96353.59;5077882;28;20176;-61
2022/03/27 03:33:50;;;;;;;30.13;17.20;;;;;;;2.38;100.00;96353.91;5077735;28;20271;-61
2022/03/27 03:36:15;;;;;;;28.57;16.47;;;;;;;2.37;100.00;96358.50;5077489;28;20202;-62
2022/03/27 03:38:42;;;;;;;31.03;16.70;;;;;;;2.36;100.00;96356.94;5077528;28;20527;-61
2022/03/27 03:41:08;;;;;;;31.50;17.17;;;;;;;2.34;100.00;96350.28;5077211;28;20629;-61
2022/03/27 03:43:36;;;;;;;31.63;17.73;;;;;;;2.30;100.00;96349.38;5077623;28;20177;-61
2022/03/27 03:46:02;;;;;;;28.67;17.13;;;;;;;2.27;100.00;96358.91;5077375;28;20182;-57
2022/03/27 03:48:28;;;;;;;29.07;16.63;;;;;;;2.26;100.00;96354.59;5102192;22;20244;-51
2022/03/27 03:50:53;;;;;;;26.57;16.40;;;;;;;2.19;100.00;96346.25;5077740;28;20223;-48
2022/03/27 03:53:19;;;;;;;27.93;16.40;;;;;;;2.15;100.00;96353.41;5077535;28;20191;-50
2022/03/27 03:55:44;;;;;;;26.27;16.80;;;;;;;2.11;100.00;96355.16;5077426;28;20245;-51
2022/03/27 03:58:09;;;;;;;31.83;16.27;;;;;;;2.09;100.00;96351.22;5077376;28;20187;-51
2022/03/27 04:00:36;;;;;;;28.63;15.97;;;;;;;2.05;100.00;96351.09;5077617;28;20605;-47
2022/03/27 04:03:02;;;;;;;29.53;16.37;;;;;;;2.06;100.00;96349.97;5077190;28;20212;-49
2022/03/27 04:05:28;;;;;;;30.13;16.57;;;;;;;2.01;100.00;96347.44;5077241;28;20216;-58
2022/03/27 04:07:54;;;;;;;30.27;17.07;;;;;;;1.99;100.00;96346.22;5077546;28;20219;-56
2022/03/27 04:10:19;;;;;;;32.40;17.33;;;;;;;1.97;100.00;96341.16;5077485;28;20588;-56
2022/03/27 04:12:44;;;;;;;30.03;16.73;;;;;;;1.96;100.00;96352.22;5077058;28;20191;-56
2022/03/27 04:15:10;;;;;;;30.77;16.00;;;;;;;1.94;100.00;96344.50;5076752;28;20187;-55
2022/03/27 04:17:45;;;;;;;30.53;17.63;;;;;;;1.94;100.00;96355.28;5077266;28;20195;-55
2022/03/27 04:20:12;;;;;;;29.23;16.67;;;;;;;1.96;100.00;96346.84;5077431;28;20227;-56
2022/03/27 04:22:41;;;;;;;32.33;17.37;;;;;;;1.95;100.00;96340.69;5076920;28;20203;-55
2022/03/27 04:25:07;;;;;;;31.00;16.87;;;;;;;1.95;100.00;96343.38;5077361;28;20180;-59
2022/03/27 04:27:34;;;;;;;28.73;16.67;;;;;;;1.93;100.00;96344.84;5077248;28;20237;-59
2022/03/27 04:30:00;;;;;;;27.23;16.93;;;;;;;1.90;100.00;96353.56;5076528;28;20192;-58
2022/03/27 04:32:25;;;;;;;27.73;16.83;;;;;;;1.84;100.00;96349.44;5076223;28;20547;-58
2022/03/27 04:34:51;;;;;;;27.63;16.53;;;;;;;1.77;100.00;96341.88;5076550;28;20199;-56
2022/03/27 04:37:17;;;;;;;30.53;17.27;;;;;;;1.68;100.00;96343.81;5076767;28;20196;-59
2022/03/27 04:39:43;;;;;;;30.57;17.40;;;;;;;1.66;100.00;96342.56;5076216;28;20191;-53
2022/03/27 04:42:12;;;;;;;28.37;16.60;;;;;;;1.65;100.00;96346.38;5077365;28;20218;-63
2022/03/27 04:44:38;;;;;;;27.73;16.50;;;;;;;1.63;100.00;96352.06;5076637;28;20184;-65
2022/03/27 04:47:05;;;;;;;35.50;16.97;;;;;;;1.64;100.00;96350.94;5076483;28;20243;-62
2022/03/27 04:49:31;;;;;;;31.53;16.83;;;;;;;1.66;100.00;96347.94;5076988;28;20213;-63
2022/03/27 04:51:57;;;;;;;29.47;15.70;;;;;;;1.65;100.00;96347.16;5076807;28;20648;-61
2022/03/27 04:54:22;;;;;;;29.37;17.50;;;;;;;1.70;100.00;96344.28;5077011;28;20211;-63
2022/03/27 04:56:48;;;;;;;29.47;16.30;;;;;;;1.74;100.00;96342.53;5076413;28;20582;-64
2022/03/27 04:59:13;;;;;;;29.17;16.73;;;;;;;1.75;100.00;96340.63;5076523;28;20554;-57
2022/03/27 05:01:38;;;;;;;29.50;17.60;;;;;;;1.72;100.00;96347.47;5076013;28;20207;-72
2022/03/27 05:04:04;;;;;;;30.83;17.13;;;;;;;1.71;100.00;96342.41;5076350;28;20671;-70
2022/03/27 05:06:29;;;;;;;31.37;16.83;;;;;;;1.67;100.00;96344.94;5076581;28;20184;-70
2022/03/27 05:08:58;;;;;;;28.10;16.10;;;;;;;1.64;100.00;96344.81;5076585;28;20520;-71
2022/03/27 05:11:25;;;;;;;31.27;17.60;;;;;;;1.65;100.00;96355.25;5076159;28;20235;-71
2022/03/27 05:13:50;;;;;;;26.90;15.57;;;;;;;1.66;100.00;96354.13;5076299;28;20197;-71
2022/03/27 05:16:15;;;;;;;32.27;16.90;;;;;;;1.69;100.00;96356.19;5076109;28;20200;-57
2022/03/27 05:18:41;;;;;;;26.63;15.30;;;;;;;1.79;100.00;96352.34;5076508;28;20203;-61
2022/03/27 05:21:06;;;;;;;29.77;15.87;;;;;;;1.88;100.00;96353.88;5076422;28;20219;-52
2022/03/27 05:23:31;;;;;;;31.60;17.17;;;;;;;2.12;100.00;96356.75;5076087;28;20188;-49
2022/03/27 05:25:56;;;;;;;28.20;16.23;;;;;;;2.40;100.00;96357.03;5075938;28;20180;-51
2022/03/27 05:28:22;;;;;;;27.43;16.20;;;;;;;2.71;100.00;96368.25;5076395;28;20176;-50
2022/03/27 05:30:47;;;;;;;32.50;17.63;;;;;;;3.07;100.00;96363.81;5076028;28;20184;-49
2022/03/27 05:33:13;;;;;;;27.70;16.37;;;;;;;3.37;100.00;96354.50;5075914;28;20203;-49
2022/03/27 05:35:40;;;;;;;27.27;16.73;;;;;;;3.71;100.00;96355.25;5076257;28;20181;-62
2022/03/27 05:38:05;;;;;;;26.07;16.63;;;;;;;4.11;100.00;96356.16;5075934;28;20710;-67
2022/03/27 05:40:31;;;;;;;26.07;16.30;;;;;;;4.50;100.00;96358.16;5075922;28;20189;-62
2022/03/27 05:42:56;;;;;;;29.57;17.13;;;;;;;4.72;100.00;96365.78;5078480;28;20626;-63
2022/03/27 05:45:22;;;;;;;30.33;17.13;;;;;;;4.99;100.00;96365.81;5079948;28;20216;-62
2022/03/27 05:47:48;;;;;;;30.93;16.63;;;;;;;5.36;100.00;96363.78;5079155;28;20191;-64
2022/03/27 05:50:15;;;;;;;28.97;16.90;;;;;;;5.53;100.00;96363.44;5079179;28;20243;-62
2022/03/27 05:52:43;;;;;;;29.47;18.73;;;;;;;5.92;100.00;96366.06;5079097;28;20557;-65
2022/03/27 05:55:09;;;;;;;29.57;17.83;;;;;;;6.52;100.00;96362.09;5079224;28;20275;-59
2022/03/27 05:57:34;;;;;;;26.60;16.67;;;;;;;6.88;100.00;96363.66;5079337;28;20188;-59
2022/03/27 05:59:59;;;;;;;26.53;17.43;;;;;;;7.28;100.00;96366.84;5079036;28;20189;-59
2022/03/27 06:02:25;;;;;;;27.23;16.97;;;;;;;7.70;100.00;96362.19;5079095;28;20308;-59
2022/03/27 06:04:51;;;;;;;26.27;17.30;;;;;;;8.20;97.74;96359.97;5079000;28;20199;-58
2022/03/27 06:07:16;;;;;;;26.17;17.23;;;;;;;8.59;93.39;96361.41;5079564;28;20186;-61
2022/03/27 06:09:42;;;;;;;25.50;17.10;;;;;;;8.89;90.83;96356.78;5078770;28;20186;-60
2022/03/27 06:12:07;;;;;;;25.53;17.27;;;;;;;9.18;86.63;96356.00;5079545;28;20226;-63
2022/03/27 06:14:33;;;;;;;31.63;22.33;;;;;;;9.51;83.40;96353.28;5079384;28;20237;-56
2022/03/27 06:16:58;;;;;;;27.57;18.73;;;;;;;9.74;82.93;96351.22;5079008;28;20671;-71
2022/03/27 06:19:24;;;;;;;28.20;18.20;;;;;;;10.32;80.88;96350.63;5079376;28;20191;-68
2022/03/27 06:21:49;;;;;;;24.93;17.80;;;;;;;10.90;76.37;96351.44;5078736;28;20621;-75
2022/03/27 06:24:15;;;;;;;25.53;17.73;;;;;;;11.71;72.48;96352.59;5078787;28;20200;-71
2022/03/27 06:26:41;;;;;;;26.23;18.03;;;;;;;12.41;68.74;96349.97;5078715;28;20637;-69
2022/03/27 06:29:09;;;;;;;32.27;24.50;;;;;;;12.93;65.14;96358.16;5079189;28;20188;-70
2022/03/27 06:31:38;;;;;;;25.07;19.07;;;;;;;13.12;61.89;96355.00;5078666;28;20192;-69
2022/03/27 06:34:05;;;;;;;28.70;18.43;;;;;;;13.39;62.20;96358.06;5078880;28;20191;-58
2022/03/27 06:36:31;;;;;;;24.17;17.73;;;;;;;14.12;58.92;96356.94;5078883;28;20260;-55
2022/03/27 06:38:56;;;;;;;26.57;19.27;;;;;;;14.30;58.21;96357.63;5078594;28;20200;-56
2022/03/27 06:41:22;;;;;;;24.30;18.63;;;;;;;13.93;57.10;96362.94;5096516;28;20200;-57
2022/03/27 06:43:47;;;;;;;28.03;20.60;;;;;;;15.16;56.51;96368.25;5078248;28;20188;-58
2022/03/27 06:46:16;;;;;;;25.13;19.50;;;;;;;15.21;52.97;96358.78;5078324;28;20269;-58
2022/03/27 06:48:43;;;;;;;22.60;18.60;;;;;;;14.98;53.44;96370.44;5078468;28;20195;-67
2022/03/27 06:51:08;;;;;;;23.90;19.30;;;;;;;16.06;50.78;96362.09;5078628;28;20665;-70
2022/03/27 06:53:34;;;;;;;24.70;19.40;;;;;;;16.50;48.99;96356.38;5077016;28;20192;-58
2022/03/27 06:55:59;;;;;;;22.87;19.23;;;;;;;16.45;47.43;96365.13;5078588;28;20203;-58
2022/03/27 06:58:24;;;;;;;23.00;19.43;;;;;;;16.89;46.02;96358.53;5078090;28;20189;-58
2022/03/27 07:03:33;;;;;;;24.53;18.97;;;;;;;17.94;45.08;96353.75;5096254;28;20708;-58
2022/03/27 07:05:59;;;;;;;27.50;19.90;;;;;;;18.42;44.02;96359.41;5078335;28;20180;-59
2022/03/27 07:08:24;;;;;;;23.07;19.13;;;;;;;18.20;42.80;96352.78;5078179;28;20195;-59
2022/03/27 07:10:50;;;;;;;23.90;19.47;;;;;;;18.07;43.10;96362.94;5078200;28;20220;-59
2022/03/27 07:13:18;;;;;;;22.63;18.63;;;;;;;17.45;43.25;96357.50;5078422;28;20185;-59
2022/03/27 07:15:45;;;;;;;29.13;20.07;;;;;;;17.38;45.16;96357.63;5078431;28;20231;-58
2022/03/27 07:18:11;;;;;;;23.30;19.67;;;;;;;17.98;42.61;96357.19;5077966;28;20216;-59
2022/03/27 07:20:44;;;;;;;22.73;18.97;;;;;;;18.62;42.37;96351.84;5077932;28;20188;-60
2022/03/27 07:23:12;;;;;;;24.70;18.80;;;;;;;18.19;42.33;96356.75;5095824;28;20200;-59
2022/03/27 07:25:40;;;;;;;23.20;19.00;;;;;;;17.84;42.97;96357.50;5077890;28;20189;-67
2022/03/27 07:28:08;;;;;;;22.77;18.97;;;;;;;17.83;43.58;96361.47;5077756;28;20185;-68
2022/03/27 07:30:34;;;;;;;25.57;19.97;;;;;;;18.13;42.72;96358.44;5077716;28;20196;-59
2022/03/27 07:33:00;;;;;;;24.63;18.70;;;;;;;18.70;41.34;96358.75;5077803;28;20181;-59
2022/03/27 07:35:26;;;;;;;21.77;18.47;;;;;;;18.68;40.41;96355.63;5077748;28;20208;-58
2022/03/27 07:37:53;;;;;;;23.47;18.43;;;;;;;17.42;44.19;96363.88;5077797;28;20200;-58
2022/03/27 07:40:20;;;;;;;22.47;18.80;;;;;;;18.55;41.89;96361.09;5077634;28;20241;-58
2022/03/27 07:42:47;;;;;;;22.60;18.40;;;;;;;18.42;41.31;96362.19;5077942;28;20208;-58
2022/03/27 07:45:13;;;;;;;23.87;18.77;;;;;;;18.72;41.79;96361.88;5077517;28;20188;-56
2022/03/27 07:47:38;;;;;;;22.07;17.90;;;;;;;17.85;42.69;96361.84;5078040;28;20192;-56
2022/03/27 07:50:06;;;;;;;22.80;18.20;;;;;;;18.74;42.25;96353.91;5077503;28;20652;-57
2022/03/27 07:52:32;;;;;;;22.63;18.23;;;;;;;19.65;39.70;96362.63;5077799;28;20233;-57
2022/03/27 07:54:57;;;;;;;22.13;18.27;;;;;;;18.69;41.52;96355.19;5077400;28;20271;-54
2022/03/27 07:57:23;;;;;;;21.40;17.83;;;;;;;19.28;41.15;96352.94;5077381;28;20191;-55
2022/03/27 07:59:48;;;;;;;21.10;18.00;;;;;;;20.29;37.46;96350.50;5077161;28;20264;-57
2022/03/27 08:02:15;;;;;;;19.93;17.83;;;;;;;21.29;36.92;96356.75;5076937;28;20204;-58
2022/03/27 08:04:41;;;;;;;21.58;18.58;;;;;;;21.34;36.07;96353.38;5077057;28;20202;-67
2022/03/27 08:07:06;;;;;;;19.80;17.50;;;;;;;21.13;36.31;96351.31;5077347;28;20180;-56
2022/03/27 08:09:31;;;;;;;20.50;18.30;;;;;;;21.85;35.47;96343.63;5077366;28;20188;-57
2022/03/27 08:11:57;;;;;;;20.25;17.95;;;;;;;21.54;35.03;96351.09;5076933;28;20208;-57
2022/03/27 08:14:27;;;;;;;20.15;18.05;;;;;;;21.32;35.54;96349.50;5077074;28;20219;-57
2022/03/27 08:16:53;;;;;;;19.60;17.55;;;;;;;21.63;34.95;96348.38;5077798;28;20578;-57
2022/03/27 08:19:18;;;;;;;21.52;19.25;;;;;;;22.17;34.52;96343.22;5076996;28;20181;-57
2022/03/27 08:21:44;;;;;;;19.88;17.77;;;;;;;23.50;32.72;96341.81;5076967;28;20185;-53
2022/03/27 08:24:09;;;;;;;19.95;17.63;;;;;;;22.79;33.11;96343.22;5094684;28;20541;-68
2022/03/27 08:29:18;;;;;;;20.45;18.27;;;;;;;23.66;32.61;96341.50;5095074;28;20227;-68
2022/03/27 08:31:43;;;;;;;20.77;18.48;;;;;;;23.07;32.71;96342.03;5076638;28;20244;-68
2022/03/27 08:34:09;;;;;;;20.30;18.23;;;;;;;22.71;33.22;96342.72;5076586;28;20220;-68
2022/03/27 08:36:34;;;;;;;23.20;19.02;;;;;;;22.63;33.05;96340.69;5077290;28;20180;-68
2022/03/27 08:38:59;;;;;;;20.50;17.83;;;;;;;21.89;34.70;96344.28;5076802;28;20245;-59
2022/03/27 08:41:26;;;;;;;20.70;18.23;;;;;;;22.07;34.46;96361.09;5077235;28;20177;-69
2022/03/27 08:43:58;;;;;;;20.20;17.20;;;;;;;22.52;34.26;96345.88;5077041;28;20184;-57
2022/03/27 08:46:25;;;;;;;21.13;17.98;;;;;;;22.89;34.54;96339.22;5077053;28;20185;-57
2022/03/27 08:48:51;;;;;;;22.52;19.15;;;;;;;23.16;32.14;96345.63;5076593;28;20180;-57
2022/03/27 08:51:35;;;;;;;18.50;16.42;;;;;;;23.39;32.43;96344.31;5076402;28;20271;-57
2022/03/27 08:54:07;;;;;;;20.63;17.45;;;;;;;23.90;31.79;96339.66;5076281;28;20180;-57
2022/03/27 08:56:34;;;;;;;21.25;18.38;;;;;;;22.87;33.38;96344.47;5076208;28;20204;-57
2022/03/27 08:59:05;;;;;;;20.40;18.30;;;;;;;21.56;34.49;96343.06;5076784;28;20212;-53
2022/03/27 09:01:31;;;;;;;21.98;17.75;;;;;;;22.91;32.70;96342.31;5076191;28;20667;-69
2022/03/27 09:03:57;;;;;;;23.25;19.80;;;;;;;23.39;32.05;96335.94;5076270;28;20204;-69
2022/03/27 09:06:25;;;;;;;21.58;18.83;;;;;;;24.22;30.68;96342.56;5076211;28;20184;-69
2022/03/27 09:08:51;;;;;;;21.85;18.98;;;;;;;23.60;29.80;96338.56;5076618;28;20195;-68
2022/03/27 09:11:18;;;;;;;24.63;18.73;;;;;;;23.38;30.27;96339.97;5076159;28;20194;-68
2022/03/27 09:13:47;;;;;;;22.58;18.67;;;;;;;21.82;31.88;96343.78;5076100;28;20176;-69
2022/03/27 09:16:13;;;;;;;23.17;18.77;;;;;;;21.84;31.88;96346.88;5075681;28;20192;-58
2022/03/27 09:18:48;;;;;;;23.15;19.10;;;;;;;22.05;32.38;96346.09;5076172;28;20176;-51
2022/03/27 09:21:15;;;;;;;28.63;19.25;;;;;;;21.58;32.82;96346.19;5075696;28;20186;-52
2022/03/27 09:23:40;;;;;;;25.40;19.58;;;;;;;22.34;31.66;96339.00;5076302;28;20280;-54
2022/03/27 09:26:16;;;;;;;24.02;19.10;;;;;;;21.49;31.63;96343.31;5075775;28;20219;-53
2022/03/27 09:28:44;;;;;;;25.50;19.75;;;;;;;21.55;31.02;96344.31;5076123;28;20176;-50
2022/03/27 09:31:13;;;;;;;25.23;18.73;;;;;;;22.22;31.74;96339.09;5075755;28;20172;-51
2022/03/27 09:33:48;;;;;;;24.85;19.25;;;;;;;22.28;31.03;96349.16;5075694;28;20185;-58
2022/03/27 09:36:19;;;;;;;24.00;19.10;;;;;;;22.63;30.81;96335.09;5076355;28;20184;-49
2022/03/27 09:39:07;;;;;;;23.63;18.53;;;;;;;23.15;30.49;96343.28;5075714;28;20192;-53
2022/03/27 09:41:41;;;;;;;25.38;19.30;;;;;;;21.46;33.17;96337.91;5093545;28;20169;-53
2022/03/27 09:44:08;;;;;;;23.08;18.67;;;;;;;22.25;32.95;96335.38;5076624;28;20194;-51
2022/03/27 09:46:49;;;;;;;21.77;18.35;;;;;;;23.23;31.61;96339.03;5075831;28;20180;-51
2022/03/27 09:49:17;;;;;;;25.85;19.45;;;;;;;22.96;31.90;96336.13;5075747;28;20227;-53
2022/03/27 09:51:51;;;;;;;23.67;19.02;;;;;;;22.98;31.82;96339.25;5075623;28;20806;-54
2022/03/27 09:54:17;;;;;;;23.08;18.98;;;;;;;23.39;31.00;96333.16;5075682;28;20187;-69
2022/03/27 09:56:42;;;;;;;22.70;19.05;;;;;;;22.72;32.08;96326.78;5075913;28;20564;-68
2022/03/27 09:59:25;;;;;;;26.52;19.30;;;;;;;22.85;31.61;96330.22;5075488;28;20184;-68
2022/03/27 10:01:50;;;;;;;25.95;19.52;;;;;;;22.11;32.24;96328.34;5076123;28;20322;-67
2022/03/27 10:04:16;;;;;;;23.45;17.98;;;;;;;21.96;30.15;96332.88;5075076;28;20279;-68
2022/03/27 10:06:42;;;;;;;26.35;18.25;;;;;;;21.91;29.47;96333.47;5076179;28;20266;-68
2022/03/27 10:09:10;;;;;;;22.83;17.90;;;;;;;21.24;29.33;96321.16;5075487;28;20180;-67
2022/03/27 10:11:38;;;;;;;24.40;18.05;;;;;;;21.98;28.88;96322.09;5075811;28;20205;-58
2022/03/27 10:14:04;;;;;;;24.27;17.27;;;;;;;22.61;29.52;96320.88;5075221;28;20184;-56
2022/03/27 10:16:34;;;;;;;24.57;18.10;;;;;;;22.21;32.42;96326.38;5075264;28;20194;-56
2022/03/27 10:19:02;;;;;;;25.50;19.52;;;;;;;23.16;31.31;96314.19;5075272;28;20173;-56
2022/03/27 10:21:28;;;;;;;24.13;19.83;;;;;;;23.46;31.46;96322.47;5075288;28;20181;-58
2022/03/27 10:24:14;;;;;;;26.08;19.17;;;;;;;22.09;32.17;96319.69;5075221;28;20181;-56
2022/03/27 10:26:41;;;;;;;25.73;20.00;;;;;;;21.90;32.90;96320.03;5074869;28;20204;-57
2022/03/27 10:29:08;;;;;;;24.35;18.92;;;;;;;22.84;32.37;96323.91;5077463;28;20180;-66
2022/03/27 10:31:34;;;;;;;24.45;19.17;;;;;;;22.31;31.54;96314.06;5078507;28;20200;-58
2022/03/27 10:34:01;;;;;;;25.57;19.23;;;;;;;21.15;33.42;96312.78;5078448;28;20541;-59
2022/03/27 10:36:29;;;;;;;24.77;18.07;;;;;;;22.09;31.61;96308.56;5078650;28;20180;-60
2022/03/27 10:39:14;;;;;;;26.63;18.57;;;;;;;23.12;31.08;96300.41;5096266;28;20233;-60
2022/03/27 10:41:51;;;;;;;25.97;18.40;;;;;;;23.39;31.07;96296.91;5078390;28;20707;-59
2022/03/27 10:44:42;;;;;;;22.37;17.53;;;;;;;23.02;28.45;96312.00;5078397;28;20176;-59
2022/03/27 10:47:21;;;;;;;22.30;16.13;;;;;;;22.72;27.19;96304.50;5078988;28;20192;-67
2022/03/27 10:50:02;;;;;;;21.87;17.03;;;;;;;22.63;27.63;96291.31;5079089;28;20195;-59
2022/03/27 10:52:36;;;;;;;21.97;16.33;;;;;;;23.49;27.35;96290.84;5078287;28;20208;-71
2022/03/27 10:55:11;;;;;;;21.33;17.23;;;;;;;22.71;27.21;96297.38;5077960;28;20592;-64
2022/03/27 10:57:46;;;;;;;23.17;16.27;;;;;;;22.86;27.61;96298.34;5078218;28;20219;-68
2022/03/27 11:00:13;;;;;;;21.87;16.60;;;;;;;23.73;27.01;96293.75;5078796;28;20178;-69
2022/03/27 11:02:45;;;;;;;21.00;16.70;;;;;;;22.58;27.74;96300.25;5078319;28;20262;-69
2022/03/27 11:05:30;;;;;;;21.60;16.30;;;;;;;22.27;28.24;96294.72;5078060;28;20192;-71
2022/03/27 11:08:17;;;;;;;23.17;18.00;;;;;;;22.59;28.23;96301.84;5077675;28;20200;-56
2022/03/27 11:10:43;;;;;;;24.23;16.53;;;;;;;21.45;29.18;96286.31;5077489;28;20188;-65
2022/03/27 11:13:27;;;;;;;20.53;16.33;;;;;;;21.84;29.17;96286.44;5077648;28;20201;-67
2022/03/27 11:16:10;;;;;;;21.33;16.20;;;;;;;22.61;27.75;96276.31;5077254;28;20237;-67
2022/03/27 11:18:37;;;;;;;22.00;16.58;;;;;;;22.38;27.78;96278.38;5077811;28;20192;-64
2022/03/27 11:21:04;;;;;;;21.93;16.80;;;;;;;21.71;29.01;96277.41;5077396;28;20185;-67
2022/03/27 11:23:32;;;;;;;20.97;16.13;;;;;;;21.73;28.75;96277.72;5077749;28;20181;-65
2022/03/27 11:25:59;;;;;;;21.30;15.93;;;;;;;21.20;28.80;96276.06;5077929;28;20199;-53